Time;durP1;ratioP1;P1;durP2;ratioP2;P2;SDS_P1;SDS_P2;PMS_P1;PMS_P2;Temp;Humidity;BMP_temperature;BMP_pressure;BME280_temperature;BME280_humidity;BME280_pressure;Samples;Min_cycle;Max_cycle;Signal;HPM_P1;HPM_P2
2021/09/13 00:00:18;;;;;;;10.20;5.70;;;14.10;77.10;;;;;;5044010;28;20037;-70
2021/09/13 00:02:45;;;;;;;16.65;6.45;;;14.10;77.20;;;;;;5048422;28;20472;-70
2021/09/13 00:05:11;;;;;;;9.35;6.43;;;14.10;77.20;;;;;;5041031;28;20035;-70
2021/09/13 00:07:38;;;;;;;14.32;7.35;;;14.00;77.30;;;;;;5050015;28;20416;-70
2021/09/13 00:10:06;;;;;;;12.68;6.50;;;14.00;77.50;;;;;;5044400;28;20483;-70
2021/09/13 00:12:33;;;;;;;10.60;5.68;;;14.00;77.70;;;;;;5046452;28;20060;-70
2021/09/13 00:14:59;;;;;;;12.35;7.00;;;13.90;77.70;;;;;;5051385;28;20017;-70
2021/09/13 00:17:26;;;;;;;11.13;7.47;;;13.90;77.70;;;;;;5049237;28;20017;-70
2021/09/13 00:19:52;;;;;;;15.05;6.70;;;13.90;77.80;;;;;;5043523;28;20088;-70
2021/09/13 00:22:19;;;;;;;10.23;6.45;;;13.90;77.50;;;;;;5042903;28;20016;-70
2021/09/13 00:24:45;;;;;;;9.15;5.50;;;13.90;77.70;;;;;;5051630;28;20380;-70
2021/09/13 00:27:12;;;;;;;11.75;5.97;;;13.80;77.60;;;;;;5048901;28;20021;-70
2021/09/13 00:29:38;;;;;;;11.27;5.80;;;13.80;78.10;;;;;;5049506;28;20025;-70
2021/09/13 00:32:05;;;;;;;14.05;6.20;;;13.80;78.00;;;;;;5050051;28;20064;-70
2021/09/13 00:34:35;;;;;;;9.85;6.43;;;13.70;78.00;;;;;;5053635;28;20142;-69
2021/09/13 00:37:03;;;;;;;12.52;5.30;;;13.70;78.10;;;;;;5047985;28;20049;-71
2021/09/13 00:39:29;;;;;;;13.02;6.60;;;13.70;78.20;;;;;;5042501;28;20062;-71
2021/09/13 00:41:55;;;;;;;11.02;6.75;;;13.70;78.10;;;;;;5050086;28;20491;-70
2021/09/13 00:44:22;;;;;;;13.23;7.60;;;13.70;78.50;;;;;;5050353;28;20021;-70
2021/09/13 00:46:48;;;;;;;13.43;6.40;;;13.70;78.60;;;;;;5047176;28;20548;-70
2021/09/13 00:49:15;;;;;;;13.05;6.55;;;13.70;78.90;;;;;;5046010;28;20391;-69
2021/09/13 00:51:41;;;;;;;11.07;7.10;;;13.70;79.10;;;;;;5044221;28;20025;-70
2021/09/13 00:54:08;;;;;;;12.00;6.55;;;13.70;79.40;;;;;;5049621;28;20017;-70
2021/09/13 00:56:35;;;;;;;15.02;6.18;;;13.80;79.50;;;;;;5045788;28;20026;-69
2021/09/13 00:59:02;;;;;;;11.30;6.57;;;13.80;79.70;;;;;;5051412;28;20090;-70
2021/09/13 01:01:28;;;;;;;9.40;5.82;;;13.80;79.80;;;;;;5046596;28;20033;-69
2021/09/13 01:03:54;;;;;;;13.48;6.40;;;13.90;79.90;;;;;;5046375;28;20781;-70
2021/09/13 01:06:21;;;;;;;12.07;6.88;;;14.00;80.00;;;;;;5046575;28;20040;-70
2021/09/13 01:08:47;;;;;;;12.55;6.18;;;14.00;79.90;;;;;;5046264;28;20484;-70
2021/09/13 01:11:14;;;;;;;9.93;5.53;;;14.00;79.80;;;;;;5046024;28;20100;-70
2021/09/13 01:13:41;;;;;;;15.02;5.32;;;14.10;79.90;;;;;;5048952;28;20021;-69
2021/09/13 01:16:07;;;;;;;13.50;5.70;;;14.10;79.90;;;;;;5042134;28;20025;-70
2021/09/13 01:18:34;;;;;;;15.98;6.50;;;14.10;79.70;;;;;;5051532;28;20104;-69
2021/09/13 01:21:01;;;;;;;12.35;5.47;;;14.10;79.70;;;;;;5046632;28;20104;-69
2021/09/13 01:23:33;;;;;;;15.48;6.18;;;14.20;79.80;;;;;;5046510;28;20454;-69
2021/09/13 01:26:00;;;;;;;11.43;6.13;;;14.20;79.80;;;;;;5051973;28;20091;-68
2021/09/13 01:28:27;;;;;;;11.23;7.05;;;14.20;79.80;;;;;;5046102;28;20020;-68
2021/09/13 01:30:54;;;;;;;7.88;4.93;;;14.20;79.80;;;;;;5050236;28;20017;-69
2021/09/13 01:33:22;;;;;;;10.18;6.00;;;14.20;79.80;;;;;;5048042;28;20079;-69
2021/09/13 01:35:48;;;;;;;18.52;7.47;;;14.20;79.70;;;;;;5045801;28;20024;-69
2021/09/13 01:38:17;;;;;;;13.45;6.43;;;14.10;79.70;;;;;;5049416;28;20020;-70
2021/09/13 01:40:48;;;;;;;17.58;6.97;;;14.10;79.90;;;;;;5041768;28;20376;-68
2021/09/13 01:43:14;;;;;;;15.40;6.38;;;14.10;79.90;;;;;;5044511;28;20460;-69
2021/09/13 01:45:41;;;;;;;12.25;5.03;;;14.10;79.80;;;;;;5048244;28;20033;-68
2021/09/13 01:48:08;;;;;;;14.20;6.90;;;14.10;80.00;;;;;;5048882;28;20507;-68
2021/09/13 01:50:34;;;;;;;8.23;5.43;;;14.10;80.20;;;;;;5046931;28;20067;-69
2021/09/13 01:53:01;;;;;;;13.90;6.13;;;14.10;80.30;;;;;;5047446;28;20009;-68
2021/09/13 01:55:27;;;;;;;12.45;5.68;;;14.10;80.40;;;;;;5047757;28;20112;-69
2021/09/13 01:57:54;;;;;;;15.48;6.65;;;14.10;80.40;;;;;;5040157;28;20484;-68
2021/09/13 02:00:20;;;;;;;11.30;6.90;;;14.10;80.40;;;;;;5046218;28;20407;-69
2021/09/13 02:02:47;;;;;;;8.23;5.35;;;14.10;80.50;;;;;;5046922;28;20112;-68
2021/09/13 02:05:13;;;;;;;11.50;5.47;;;14.00;80.50;;;;;;5047798;28;20646;-68
2021/09/13 02:07:39;;;;;;;15.13;5.97;;;14.00;80.70;;;;;;5040705;28;20496;-68
2021/09/13 02:10:07;;;;;;;11.95;7.45;;;14.00;80.70;;;;;;5042244;28;20029;-69
2021/09/13 02:12:34;;;;;;;10.13;4.40;;;14.00;80.70;;;;;;5047284;28;20060;-68
2021/09/13 02:15:00;;;;;;;8.65;4.00;;;13.90;80.70;;;;;;5042672;28;20041;-68
2021/09/13 02:17:27;;;;;;;8.00;4.97;;;13.90;80.80;;;;;;5039472;28;20026;-68
2021/09/13 02:19:53;;;;;;;10.02;3.33;;;13.90;80.80;;;;;;5044340;28;20037;-68
2021/09/13 02:22:20;;;;;;;12.05;4.22;;;13.90;81.00;;;;;;5048946;28;20510;-67
2021/09/13 02:24:46;;;;;;;11.50;3.75;;;13.90;81.40;;;;;;5046504;28;20504;-69
2021/09/13 02:27:13;;;;;;;10.73;4.85;;;13.80;81.40;;;;;;5041041;28;20020;-69
2021/09/13 02:29:39;;;;;;;5.28;2.97;;;13.90;81.40;;;;;;5047488;28;20021;-70
2021/09/13 02:32:06;;;;;;;12.82;3.90;;;13.80;81.50;;;;;;5047893;28;20043;-68
2021/09/13 02:34:33;;;;;;;9.60;3.60;;;13.80;81.60;;;;;;5043974;28;20033;-69
2021/09/13 02:36:59;;;;;;;15.30;4.03;;;13.80;81.80;;;;;;5044181;28;20028;-68
2021/09/13 02:39:25;;;;;;;10.10;3.40;;;13.80;81.80;;;;;;5045861;28;20021;-68
2021/09/13 02:41:53;;;;;;;10.00;3.35;;;13.80;82.00;;;;;;5045290;28;20032;-69
2021/09/13 02:44:19;;;;;;;8.40;3.60;;;13.80;82.00;;;;;;5045456;28;20025;-69
2021/09/13 02:46:46;;;;;;;8.43;4.88;;;13.80;82.10;;;;;;5046380;28;20480;-69
2021/09/13 02:49:12;;;;;;;12.45;4.28;;;13.80;82.70;;;;;;5041345;28;20357;-70
2021/09/13 02:51:39;;;;;;;8.70;3.47;;;13.80;81.90;;;;;;5044012;28;20431;-69
2021/09/13 02:54:06;;;;;;;9.63;4.05;;;13.80;81.80;;;;;;5037116;28;20028;-70
2021/09/13 02:56:33;;;;;;;10.57;5.32;;;13.80;81.70;;;;;;5046775;28;20017;-70
2021/09/13 02:58:59;;;;;;;9.80;5.55;;;13.80;81.50;;;;;;5047599;28;20086;-70
2021/09/13 03:01:25;;;;;;;12.98;5.32;;;13.80;81.50;;;;;;5041963;28;20021;-70
2021/09/13 03:03:52;;;;;;;14.23;5.85;;;13.80;81.50;;;;;;5046977;28;20032;-70
2021/09/13 03:06:18;;;;;;;12.20;6.90;;;13.80;81.40;;;;;;5040814;28;20059;-69
2021/09/13 03:08:45;;;;;;;17.42;8.05;;;13.70;81.40;;;;;;5043151;28;20059;-70
2021/09/13 03:11:11;;;;;;;13.98;6.40;;;13.70;81.50;;;;;;5039897;28;20033;-69
2021/09/13 03:13:38;;;;;;;39.47;21.65;;;13.70;81.60;;;;;;5047740;28;20017;-68
2021/09/13 03:16:05;;;;;;;37.83;21.27;;;13.70;81.80;;;;;;5046074;28;20021;-70
2021/09/13 03:18:32;;;;;;;19.02;10.38;;;13.70;81.60;;;;;;5047756;28;20024;-69
2021/09/13 03:20:58;;;;;;;12.32;5.55;;;13.70;81.50;;;;;;5042596;28;20044;-70
2021/09/13 03:23:25;;;;;;;16.08;6.25;;;13.70;81.50;;;;;;5046924;28;20028;-69
2021/09/13 03:25:51;;;;;;;16.10;5.60;;;13.70;81.50;;;;;;5043120;28;20566;-70
2021/09/13 03:28:18;;;;;;;9.75;5.70;;;13.70;81.60;;;;;;5048205;28;20058;-69
2021/09/13 03:30:44;;;;;;;13.25;6.97;;;13.70;81.80;;;;;;5046627;28;20035;-70
2021/09/13 03:33:11;;;;;;;14.88;6.82;;;13.70;81.90;;;;;;5042903;28;20111;-70
2021/09/13 03:35:37;;;;;;;15.88;7.18;;;13.70;82.00;;;;;;5042020;28;20476;-69
2021/09/13 03:38:04;;;;;;;15.52;6.70;;;13.60;81.80;;;;;;5046344;28;20060;-69
2021/09/13 03:40:30;;;;;;;10.55;6.13;;;13.70;81.70;;;;;;5045765;28;20070;-70
2021/09/13 03:42:57;;;;;;;12.45;5.53;;;13.70;81.50;;;;;;5044674;28;20022;-69
2021/09/13 03:45:23;;;;;;;14.18;5.63;;;13.70;81.30;;;;;;5050232;28;20506;-69
2021/09/13 03:47:50;;;;;;;11.98;6.18;;;13.70;81.20;;;;;;5051737;28;20041;-68
2021/09/13 03:50:16;;;;;;;16.10;8.32;;;13.60;81.00;;;;;;5051818;28;20104;-70
2021/09/13 03:52:43;;;;;;;20.55;5.65;;;13.60;81.00;;;;;;5048762;28;20021;-69
2021/09/13 03:55:09;;;;;;;12.27;6.53;;;13.60;81.00;;;;;;5049344;28;20074;-69
2021/09/13 03:57:36;;;;;;;13.32;7.47;;;13.60;80.90;;;;;;5047436;28;20026;-68
2021/09/13 04:00:04;;;;;;;15.55;6.47;;;13.60;81.00;;;;;;5049398;28;20044;-69
2021/09/13 04:02:31;;;;;;;12.00;5.50;;;13.60;80.90;;;;;;5053270;28;20122;-70
2021/09/13 04:04:57;;;;;;;9.43;5.72;;;13.60;80.80;;;;;;5050913;28;20056;-69
2021/09/13 04:07:34;;;;;;;33.30;23.58;;;13.50;80.70;;;;;;5046057;28;20029;-68
2021/09/13 04:12:39;;;;;;;10.93;7.13;;;13.50;80.80;;;;;;5051333;28;20019;-70
2021/09/13 04:15:07;;;;;;;13.55;6.20;;;13.50;80.70;;;;;;5050530;28;20561;-71
2021/09/13 04:17:33;;;;;;;10.48;5.05;;;13.50;80.70;;;;;;5053486;28;20028;-71
2021/09/13 04:20:00;;;;;;;7.63;5.03;;;13.50;80.70;;;;;;5046658;28;20121;-69
2021/09/13 04:22:26;;;;;;;14.55;4.97;;;13.50;80.70;;;;;;5052688;28;20040;-69
2021/09/13 04:24:53;;;;;;;11.57;4.60;;;13.50;80.60;;;;;;5046156;28;20071;-67
2021/09/13 04:27:19;;;;;;;51.15;34.45;;;13.50;80.70;;;;;;5045109;28;20021;-69
2021/09/13 04:29:45;;;;;;;26.98;13.27;;;13.50;80.90;;;;;;5043270;28;20040;-68
2021/09/13 04:32:12;;;;;;;12.05;4.32;;;13.50;80.80;;;;;;5050210;28;20024;-69
2021/09/13 04:34:38;;;;;;;8.13;3.97;;;13.50;80.80;;;;;;5045527;28;20025;-69
2021/09/13 04:37:05;;;;;;;14.63;4.15;;;13.40;80.70;;;;;;5045590;28;20104;-72
2021/09/13 04:39:31;;;;;;;16.77;4.65;;;13.40;80.90;;;;;;5040428;28;20400;-70
2021/09/13 04:41:58;;;;;;;8.82;3.88;;;13.40;80.70;;;;;;5046413;28;20018;-68
2021/09/13 04:44:25;;;;;;;10.02;3.90;;;13.40;80.80;;;;;;5039731;28;20017;-68
2021/09/13 04:46:51;;;;;;;9.05;5.15;;;13.40;80.70;;;;;;5041190;28;20099;-69
2021/09/13 04:49:20;;;;;;;7.68;3.80;;;13.40;80.90;;;;;;5046003;28;20057;-69
2021/09/13 04:51:46;;;;;;;10.55;4.03;;;13.40;80.90;;;;;;5043331;28;20021;-70
2021/09/13 04:54:13;;;;;;;10.55;4.30;;;13.40;80.90;;;;;;5042692;28;20031;-67
2021/09/13 04:57:19;;;;;;;9.43;4.43;;;13.40;80.80;;;;;;5047233;28;20025;-67
2021/09/13 05:00:25;;;;;;;8.20;4.43;;;13.40;80.70;;;;;;5044176;28;20050;-67
2021/09/13 05:03:31;;;;;;;6.70;3.97;;;13.30;80.40;;;;;;5044439;28;20034;-67
2021/09/13 05:06:37;;;;;;;18.20;6.78;;;13.30;80.10;;;;;;5046037;28;20045;-67
2021/09/13 05:09:43;;;;;;;9.35;3.58;;;13.30;80.00;;;;;;5047031;28;20029;-67
2021/09/13 05:12:49;;;;;;;8.65;2.75;;;13.30;79.90;;;;;;5046557;28;20122;-67
2021/09/13 05:15:55;;;;;;;4.47;2.17;;;13.30;79.70;;;;;;5050625;28;20020;-67
2021/09/13 05:19:01;;;;;;;5.75;3.53;;;13.30;79.40;;;;;;5048701;28;20135;-67
2021/09/13 05:22:07;;;;;;;10.75;2.63;;;13.30;79.30;;;;;;5048573;28;20026;-67
2021/09/13 05:25:14;;;;;;;8.02;1.95;;;13.30;79.00;;;;;;5048509;28;20498;-67
2021/09/13 05:28:20;;;;;;;7.90;1.83;;;13.30;79.30;;;;;;5048306;28;20037;-67
2021/09/13 05:31:26;;;;;;;7.32;2.35;;;13.30;78.50;;;;;;5046726;28;20024;-67
2021/09/13 05:34:32;;;;;;;6.35;2.17;;;13.30;78.40;;;;;;5048077;28;20040;-68
2021/09/13 05:37:38;;;;;;;5.93;1.95;;;13.30;78.10;;;;;;5051195;28;20032;-68
2021/09/13 05:40:45;;;;;;;3.60;1.52;;;13.30;78.00;;;;;;5041966;28;20090;-68
2021/09/13 05:43:51;;;;;;;7.07;1.95;;;13.30;77.70;;;;;;5042917;28;20094;-68
2021/09/13 05:46:57;;;;;;;5.10;2.03;;;13.40;77.80;;;;;;5042960;28;20036;-68
2021/09/13 05:50:03;;;;;;;5.78;2.33;;;13.40;77.60;;;;;;5046757;28;20137;-68
2021/09/13 05:53:09;;;;;;;9.20;2.30;;;13.40;77.60;;;;;;5047758;28;20024;-68
2021/09/13 05:56:15;;;;;;;4.97;1.88;;;13.50;77.60;;;;;;5041947;28;20483;-68
2021/09/13 05:59:21;;;;;;;11.63;2.92;;;13.50;77.40;;;;;;5046094;28;20569;-68
2021/09/13 06:02:27;;;;;;;5.72;1.75;;;13.50;77.20;;;;;;5044446;28;20047;-68
2021/09/13 06:05:33;;;;;;;8.77;2.63;;;13.60;77.70;;;;;;5044815;28;20033;-68
2021/09/13 06:08:39;;;;;;;4.00;1.58;;;13.60;77.20;;;;;;5048292;28;20656;-68
2021/09/13 06:11:45;;;;;;;4.35;1.50;;;13.70;77.10;;;;;;5044727;28;20111;-68
2021/09/13 06:14:51;;;;;;;5.35;1.35;;;13.70;76.90;;;;;;5048017;28;20039;-68
2021/09/13 06:17:57;;;;;;;5.22;2.30;;;13.80;76.90;;;;;;5044815;28;20100;-68
2021/09/13 06:21:03;;;;;;;6.55;1.50;;;13.80;76.70;;;;;;5048925;28;20455;-68
2021/09/13 06:24:09;;;;;;;5.80;2.72;;;13.90;76.80;;;;;;5049499;28;20018;-68
2021/09/13 06:27:15;;;;;;;5.20;1.90;;;13.90;76.60;;;;;;5050317;28;20033;-68
2021/09/13 06:30:21;;;;;;;7.07;1.35;;;14.00;76.60;;;;;;5045205;28;20025;-68
2021/09/13 06:33:29;;;;;;;4.93;1.42;;;14.00;76.60;;;;;;5043984;28;20100;-68
2021/09/13 06:36:35;;;;;;;9.00;1.92;;;14.10;76.40;;;;;;5046693;28;20056;-68
2021/09/13 06:39:41;;;;;;;8.23;1.85;;;14.10;76.30;;;;;;5043642;28;20556;-68
2021/09/13 06:42:47;;;;;;;8.77;2.30;;;14.10;76.00;;;;;;5047108;28;20027;-68
2021/09/13 06:45:59;;;;;;;7.43;2.03;;;14.20;75.80;;;;;;5048107;28;20032;-68
2021/09/13 06:49:05;;;;;;;3.00;1.35;;;14.20;75.70;;;;;;5045981;28;20079;-68
2021/09/13 06:52:11;;;;;;;3.33;1.20;;;14.30;75.70;;;;;;5037752;28;20033;-67
2021/09/13 06:55:17;;;;;;;5.93;2.40;;;14.30;74.80;;;;;;5042749;28;20515;-68
2021/09/13 06:58:26;;;;;;;11.82;1.83;;;14.40;74.30;;;;;;5049484;28;20035;-67
2021/09/13 07:01:35;;;;;;;3.78;0.95;;;14.40;74.20;;;;;;5048830;28;20120;-67
2021/09/13 07:04:41;;;;;;;2.17;1.10;;;14.50;73.90;;;;;;5045853;28;20013;-67
2021/09/13 07:07:47;;;;;;;3.30;1.55;;;14.50;73.50;;;;;;5049960;28;20028;-68
2021/09/13 07:10:54;;;;;;;3.63;1.23;;;14.60;73.40;;;;;;5042289;28;20025;-68
2021/09/13 07:14:00;;;;;;;10.45;2.38;;;14.70;74.10;;;;;;5049800;28;20036;-68
2021/09/13 07:17:07;;;;;;;6.00;1.77;;;14.70;73.60;;;;;;5043771;28;20017;-68
2021/09/13 07:19:53;;;;;;;;;;;14.90;73.20;;;;;;5044406;28;20021;-68
2021/09/13 07:22:59;;;;;;;9.27;2.60;;;14.90;72.60;;;;;;5041943;28;19904;-68
2021/09/13 07:26:05;;;;;;;3.53;0.95;;;14.90;71.10;;;;;;5047077;28;20076;-68
2021/09/13 07:29:11;;;;;;;4.38;1.00;;;15.00;70.50;;;;;;5048127;28;20045;-68
2021/09/13 07:32:18;;;;;;;3.70;1.08;;;15.10;69.90;;;;;;5042388;28;20431;-68
2021/09/13 07:35:24;;;;;;;3.85;0.90;;;15.10;69.80;;;;;;5042269;28;20037;-69
2021/09/13 07:38:30;;;;;;;4.05;1.10;;;15.20;69.60;;;;;;5039977;28;20029;-69
2021/09/13 07:41:36;;;;;;;1.98;0.82;;;15.30;69.00;;;;;;5049276;28;20107;-68
2021/09/13 07:44:42;;;;;;;3.05;1.02;;;15.40;67.10;;;;;;5041912;28;20055;-69
2021/09/13 07:47:48;;;;;;;2.38;0.63;;;15.40;66.50;;;;;;5046923;28;20033;-68
2021/09/13 07:50:54;;;;;;;3.85;1.20;;;15.50;66.70;;;;;;5048551;28;20033;-69
2021/09/13 07:54:00;;;;;;;5.35;1.73;;;15.60;66.90;;;;;;5046278;28;20353;-68
2021/09/13 07:57:06;;;;;;;2.15;1.10;;;15.70;66.00;;;;;;5039209;28;20021;-69
2021/09/13 08:00:14;;;;;;;3.47;1.90;;;15.80;63.80;;;;;;5042258;28;20059;-69
2021/09/13 08:03:20;;;;;;;2.78;1.10;;;15.80;64.20;;;;;;5036330;28;20018;-68
2021/09/13 08:06:26;;;;;;;4.95;0.90;;;15.90;63.90;;;;;;5061795;28;20037;-68
2021/09/13 08:09:32;;;;;;;2.35;0.77;;;16.00;63.60;;;;;;5044430;28;20372;-68
2021/09/13 08:12:38;;;;;;;3.97;1.13;;;16.10;63.60;;;;;;5045739;28;20029;-68
2021/09/13 08:15:44;;;;;;;2.58;0.98;;;16.20;61.90;;;;;;5047968;28;20037;-68
2021/09/13 08:18:53;;;;;;;4.03;0.80;;;16.20;62.30;;;;;;5047686;28;20257;-68
2021/09/13 08:22:01;;;;;;;3.20;0.70;;;16.30;62.60;;;;;;5047428;28;20009;-68
2021/09/13 08:25:07;;;;;;;2.75;0.93;;;16.40;61.60;;;;;;5046007;28;20021;-68
2021/09/13 08:28:17;;;;;;;2.63;1.13;;;16.50;60.90;;;;;;5044657;28;20033;-68
2021/09/13 08:31:23;;;;;;;1.40;0.80;;;16.50;60.50;;;;;;5042506;28;20041;-69
2021/09/13 08:34:29;;;;;;;4.28;1.55;;;16.60;59.70;;;;;;5049127;28;20074;-68
2021/09/13 08:37:35;;;;;;;5.65;0.93;;;16.60;59.30;;;;;;5047076;28;20655;-68
2021/09/13 08:40:41;;;;;;;3.15;0.65;;;16.70;58.40;;;;;;5046504;28;20025;-69
2021/09/13 08:43:47;;;;;;;3.78;0.85;;;16.80;57.90;;;;;;5050705;28;20075;-68
2021/09/13 08:47:00;;;;;;;5.75;1.08;;;16.80;57.60;;;;;;5046756;28;20394;-68
2021/09/13 08:50:22;;;;;;;3.25;0.70;;;16.90;57.60;;;;;;5045645;28;20451;-69
2021/09/13 08:53:32;;;;;;;3.95;0.70;;;17.00;58.80;;;;;;5043837;28;20036;-68
2021/09/13 08:56:42;;;;;;;2.05;1.00;;;17.10;59.20;;;;;;5038222;28;20495;-69
2021/09/13 08:59:54;;;;;;;6.57;1.23;;;17.10;58.80;;;;;;5048453;28;20037;-68
2021/09/13 09:03:00;;;;;;;6.50;0.90;;;17.20;56.90;;;;;;5049394;28;20029;-69
2021/09/13 09:06:06;;;;;;;1.20;0.52;;;17.30;56.80;;;;;;5047713;28;20037;-70
2021/09/13 09:09:12;;;;;;;1.40;0.65;;;17.40;56.70;;;;;;5046111;28;20029;-68
2021/09/13 09:12:04;;;;;;;3.45;1.33;;;17.50;56.90;;;;;;5043375;28;20029;-68
2021/09/13 09:14:57;;;;;;;4.60;0.82;;;17.50;57.30;;;;;;5044082;28;20429;-68
2021/09/13 09:18:03;;;;;;;3.70;0.60;;;17.60;56.90;;;;;;5047501;28;20023;-68
2021/09/13 09:21:09;;;;;;;2.97;0.70;;;17.70;55.90;;;;;;5042747;28;20029;-68
2021/09/13 09:24:00;;;;;;;8.15;0.95;;;17.70;56.30;;;;;;5047994;28;20017;-68
2021/09/13 09:27:18;;;;;;;3.92;0.43;;;17.80;55.60;;;;;;5056667;28;20131;-68
2021/09/13 09:30:30;;;;;;;1.45;0.68;;;17.80;55.80;;;;;;5048123;28;20032;-68
2021/09/13 09:33:43;;;;;;;3.75;0.85;;;17.90;55.90;;;;;;5047868;28;20061;-68
2021/09/13 09:36:51;;;;;;;2.80;0.85;;;18.00;56.10;;;;;;5043088;28;20022;-68
2021/09/13 09:40:10;;;;;;;1.73;0.70;;;18.10;56.00;;;;;;5045678;28;20410;-68
2021/09/13 09:43:16;;;;;;;2.45;0.85;;;18.20;55.60;;;;;;5045717;28;20032;-68
2021/09/13 09:46:22;;;;;;;3.05;1.02;;;18.30;55.80;;;;;;5046354;28;20081;-68
2021/09/13 09:49:31;;;;;;;2.30;0.68;;;18.40;55.70;;;;;;5044034;28;20029;-68
2021/09/13 09:52:46;;;;;;;4.75;0.70;;;18.50;55.40;;;;;;5045000;28;20063;-68
2021/09/13 09:55:58;;;;;;;1.42;0.90;;;18.50;54.10;;;;;;5048842;28;20513;-68
2021/09/13 09:59:17;;;;;;;3.25;0.57;;;18.60;53.20;;;;;;5043838;28;20364;-68
2021/09/13 10:02:28;;;;;;;3.65;0.60;;;18.70;53.90;;;;;;5042876;28;20048;-68
2021/09/13 10:05:34;;;;;;;4.75;0.77;;;18.70;53.50;;;;;;5047658;28;20022;-68
2021/09/13 10:08:40;;;;;;;3.83;1.35;;;18.80;53.30;;;;;;5048704;28;20132;-68
2021/09/13 10:11:46;;;;;;;5.43;1.15;;;18.90;53.40;;;;;;5044210;28;20018;-68
2021/09/13 10:15:08;;;;;;;9.23;1.25;;;19.00;54.00;;;;;;5048759;28;20469;-68
2021/09/13 10:18:14;;;;;;;6.32;1.55;;;19.00;53.90;;;;;;5049683;28;20035;-68
2021/09/13 10:21:20;;;;;;;3.95;1.05;;;19.00;53.50;;;;;;5043775;28;20433;-68
2021/09/13 10:24:28;;;;;;;2.40;0.60;;;19.10;53.60;;;;;;5038400;28;20415;-68
2021/09/13 10:27:34;;;;;;;3.42;0.60;;;19.20;53.20;;;;;;5045006;28;20073;-68
2021/09/13 10:30:52;;;;;;;5.55;0.70;;;19.20;52.70;;;;;;5045274;28;20025;-68
2021/09/13 10:33:59;;;;;;;2.22;0.73;;;19.30;52.40;;;;;;5049228;28;20124;-68
2021/09/13 10:37:00;;;;;;;5.22;1.30;;;19.40;53.10;;;;;;5040985;28;20449;-69
2021/09/13 10:40:16;;;;;;;3.50;1.05;;;19.40;53.30;;;;;;5044195;28;20025;-68
2021/09/13 10:43:15;;;;;;;3.03;0.60;;;19.40;53.10;;;;;;5047631;28;20025;-68
2021/09/13 10:46:21;;;;;;;2.70;0.70;;;19.50;53.50;;;;;;5047952;28;20040;-68
2021/09/13 10:49:30;;;;;;;1.38;0.60;;;19.60;53.60;;;;;;5045184;28;20287;-68
2021/09/13 10:52:28;;;;;;;4.30;1.60;;;19.60;53.10;;;;;;5046297;28;20032;-69
2021/09/13 10:55:13;;;;;;;2.97;0.88;;;19.70;53.20;;;;;;5028454;28;20090;-68
2021/09/13 10:57:52;;;;;;;6.55;1.08;;;19.70;52.40;;;;;;5042929;28;20039;-69
2021/09/13 11:01:17;;;;;;;2.08;0.52;;;19.70;51.80;;;;;;5050169;28;20076;-68
2021/09/13 11:04:03;;;;;;;2.28;0.80;;;19.70;51.50;;;;;;4985729;28;20409;-69
2021/09/13 11:07:11;;;;;;;5.28;0.70;;;19.70;51.90;;;;;;4981780;28;20030;-69
2021/09/13 11:10:17;;;;;;;4.78;0.70;;;19.80;51.90;;;;;;5047646;28;20488;-69
2021/09/13 11:13:23;;;;;;;4.80;1.05;;;19.90;50.90;;;;;;5047302;28;20032;-68
2021/09/13 11:16:29;;;;;;;1.65;0.73;;;19.90;51.20;;;;;;5044689;28;20023;-68
2021/09/13 11:19:35;;;;;;;3.88;0.60;;;20.10;51.10;;;;;;5047729;28;20040;-68
2021/09/13 11:22:45;;;;;;;3.42;0.90;;;20.20;50.60;;;;;;5047738;28;20102;-68
2021/09/13 11:25:51;;;;;;;1.70;0.63;;;20.20;51.10;;;;;;5039973;28;20033;-68
2021/09/13 11:28:56;;;;;;;4.65;1.00;;;20.30;51.10;;;;;;5043014;28;20117;-68
2021/09/13 11:32:08;;;;;;;2.35;0.80;;;20.40;50.60;;;;;;5045691;28;20021;-68
2021/09/13 11:35:29;;;;;;;3.13;1.50;;;20.50;50.90;;;;;;5046880;28;20040;-68
2021/09/13 11:38:35;;;;;;;1.25;0.93;;;20.60;50.80;;;;;;5047369;28;20108;-68
2021/09/13 11:41:41;;;;;;;8.45;1.40;;;20.60;50.70;;;;;;5044951;28;20408;-68
2021/09/13 11:44:47;;;;;;;2.63;0.73;;;20.60;51.00;;;;;;5046602;28;20028;-68
2021/09/13 11:47:56;;;;;;;2.38;0.82;;;20.60;51.10;;;;;;5046645;28;20041;-68
2021/09/13 11:51:02;;;;;;;6.05;1.40;;;20.70;51.50;;;;;;5045839;28;20147;-68
2021/09/13 11:54:23;;;;;;;4.40;1.45;;;20.70;52.00;;;;;;5042806;28;20028;-68
2021/09/13 11:57:39;;;;;;;1.90;0.80;;;20.80;52.10;;;;;;5040520;28;20036;-68
2021/09/13 12:00:50;;;;;;;2.28;0.65;;;20.90;52.30;;;;;;5037487;28;20045;-68
2021/09/13 12:03:56;;;;;;;4.63;1.40;;;20.90;52.20;;;;;;5045050;28;20041;-68
2021/09/13 12:07:02;;;;;;;5.65;1.50;;;21.10;51.80;;;;;;5043169;28;20040;-68
2021/09/13 12:10:08;;;;;;;3.20;0.98;;;21.10;51.20;;;;;;5047450;28;20095;-67
2021/09/13 12:13:14;;;;;;;15.88;1.67;;;21.10;51.30;;;;;;5045093;28;20056;-68
2021/09/13 12:16:20;;;;;;;2.83;1.00;;;21.10;50.90;;;;;;5050142;28;20112;-68
2021/09/13 12:19:35;;;;;;;5.75;1.33;;;21.20;51.50;;;;;;5048809;28;20466;-68
2021/09/13 12:22:41;;;;;;;3.35;0.77;;;21.20;51.50;;;;;;5046484;28;20032;-68
2021/09/13 12:25:48;;;;;;;6.00;0.80;;;21.20;51.10;;;;;;5047627;28;20025;-68
2021/09/13 12:29:00;;;;;;;2.53;0.80;;;21.30;50.70;;;;;;5047706;28;20040;-68
2021/09/13 12:32:06;;;;;;;2.35;0.90;;;21.30;50.00;;;;;;5046605;28;20033;-68
2021/09/13 12:35:12;;;;;;;2.97;1.20;;;21.30;50.30;;;;;;5047743;28;20151;-68
2021/09/13 12:38:18;;;;;;;4.40;1.55;;;21.30;50.10;;;;;;5041177;28;20033;-68
2021/09/13 12:41:38;;;;;;;3.00;1.00;;;21.40;51.10;;;;;;5042195;28;20053;-68
2021/09/13 12:44:53;;;;;;;2.92;1.10;;;21.40;50.10;;;;;;5049232;28;20043;-68
2021/09/13 12:47:59;;;;;;;5.45;1.15;;;21.50;49.90;;;;;;5050675;28;20029;-68
2021/09/13 12:51:05;;;;;;;3.55;0.60;;;21.40;50.10;;;;;;5046193;28;20032;-68
2021/09/13 12:54:13;;;;;;;6.03;0.77;;;21.30;49.80;;;;;;5045663;28;20025;-69
2021/09/13 12:57:23;;;;;;;1.13;0.52;;;21.30;49.60;;;;;;5048849;28;20296;-69
2021/09/13 13:00:29;;;;;;;2.33;0.80;;;21.30;49.30;;;;;;5046744;28;20056;-69
2021/09/13 13:03:51;;;;;;;6.13;1.67;;;21.30;49.80;;;;;;5046118;28;20179;-68
2021/09/13 13:06:57;;;;;;;2.53;0.95;;;21.30;50.00;;;;;;5050353;28;20075;-68
2021/09/13 13:10:03;;;;;;;3.30;1.15;;;21.20;50.20;;;;;;5044324;28;20025;-68
2021/09/13 13:13:09;;;;;;;2.15;0.75;;;21.20;49.90;;;;;;5041643;28;20353;-68
2021/09/13 13:16:16;;;;;;;3.40;1.20;;;21.10;50.00;;;;;;5043439;28;20139;-68
2021/09/13 13:19:22;;;;;;;8.35;1.27;;;21.10;49.70;;;;;;5044475;28;20120;-68
2021/09/13 13:22:28;;;;;;;3.88;0.90;;;21.00;50.60;;;;;;5044544;28;20026;-68
2021/09/13 13:25:34;;;;;;;4.35;0.77;;;20.90;51.00;;;;;;5039355;28;20482;-69
2021/09/13 13:28:40;;;;;;;2.95;0.73;;;20.80;51.20;;;;;;5037195;28;20114;-69
2021/09/13 13:31:46;;;;;;;4.15;0.68;;;20.70;51.20;;;;;;5038969;28;20063;-68
2021/09/13 13:34:52;;;;;;;7.30;1.23;;;20.70;51.60;;;;;;5047050;28;20016;-68
2021/09/13 13:37:59;;;;;;;3.20;0.95;;;20.70;51.60;;;;;;5036580;28;20022;-69
2021/09/13 13:41:05;;;;;;;1.20;0.70;;;20.80;51.40;;;;;;5037038;28;20365;-68
2021/09/13 13:44:11;;;;;;;5.15;1.17;;;20.80;50.80;;;;;;5038322;28;20028;-68
2021/09/13 13:47:17;;;;;;;2.30;0.70;;;20.70;50.40;;;;;;5035669;28;20030;-69
2021/09/13 13:50:24;;;;;;;1.63;1.23;;;20.60;50.80;;;;;;5041489;28;20025;-68
2021/09/13 13:53:30;;;;;;;4.63;0.80;;;20.60;51.90;;;;;;5037619;28;20036;-68
2021/09/13 13:56:36;;;;;;;1.48;0.52;;;20.50;51.40;;;;;;5036790;28;20479;-68
2021/09/13 13:59:42;;;;;;;2.53;0.80;;;20.40;52.20;;;;;;5038483;28;20049;-68
2021/09/13 14:02:48;;;;;;;1.73;0.80;;;20.30;52.50;;;;;;5039078;28;20022;-69
2021/09/13 14:05:54;;;;;;;4.45;0.73;;;20.30;52.60;;;;;;5037198;28;20133;-68
2021/09/13 14:09:00;;;;;;;3.45;0.55;;;20.30;52.10;;;;;;5037337;28;20091;-68
2021/09/13 14:12:06;;;;;;;1.30;0.45;;;20.30;52.10;;;;;;5041616;28;20103;-68
2021/09/13 14:15:12;;;;;;;4.63;1.00;;;20.30;52.10;;;;;;5043615;28;20054;-68
2021/09/13 14:18:18;;;;;;;4.80;0.80;;;20.30;51.70;;;;;;5051741;28;20488;-70
2021/09/13 14:21:24;;;;;;;4.90;0.93;;;20.30;53.00;;;;;;5041286;28;20098;-65
2021/09/13 14:24:30;;;;;;;3.78;1.38;;;20.20;52.20;;;;;;5041743;28;20029;-72
2021/09/13 14:27:36;;;;;;;7.15;1.42;;;20.10;53.70;;;;;;5044728;28;20112;-70
2021/09/13 14:30:42;;;;;;;22.40;14.30;;;20.10;53.70;;;;;;5046561;28;20040;-70
2021/09/13 14:33:49;;;;;;;15.65;12.90;;;20.10;53.80;;;;;;5050518;28;20120;-69
2021/09/13 14:36:55;;;;;;;5.93;2.78;;;20.10;53.40;;;;;;5049321;28;20021;-69
2021/09/13 14:40:01;;;;;;;5.20;1.33;;;20.10;52.00;;;;;;5042879;28;20553;-71
2021/09/13 14:43:07;;;;;;;0.73;0.55;;;19.90;52.70;;;;;;5044355;28;20022;-66
2021/09/13 14:46:13;;;;;;;5.22;0.68;;;19.90;51.70;;;;;;5046213;28;20496;-69
2021/09/13 14:49:20;;;;;;;3.38;0.70;;;19.80;51.80;;;;;;5042327;28;20033;-68